createdAt,value
2019-02-26T00:01:02.926Z,4.41
2019-02-26T00:03:35.430Z,4.32
2019-02-26T00:06:07.543Z,4.26
2019-02-26T00:08:39.508Z,4.29
2019-02-26T00:11:11.510Z,4.24
2019-02-26T00:13:43.495Z,4.23
2019-02-26T00:16:17.703Z,4.21
2019-02-26T00:18:49.346Z,4.22
2019-02-26T00:21:22.702Z,4.24
2019-02-26T00:23:55.202Z,4.14
2019-02-26T00:26:27.193Z,4.10
2019-02-26T00:28:59.794Z,4.08
2019-02-26T00:31:33.084Z,4.09
2019-02-26T00:34:06.014Z,3.96
2019-02-26T00:36:38.961Z,3.97
2019-02-26T00:39:10.938Z,3.95
2019-02-26T00:41:42.900Z,3.87
2019-02-26T00:44:14.902Z,3.84
2019-02-26T00:46:46.850Z,3.77
2019-02-26T00:49:21.031Z,3.73
2019-02-26T00:51:52.873Z,3.73
2019-02-26T00:54:26.666Z,3.75
2019-02-26T00:57:01.067Z,3.68
2019-02-26T00:59:32.656Z,3.62
2019-02-26T01:02:04.627Z,3.60
2019-02-26T01:04:36.591Z,3.66
2019-02-26T01:07:08.580Z,3.58
2019-02-26T01:09:40.563Z,3.60
2019-02-26T01:12:13.801Z,3.61
2019-02-26T01:14:48.079Z,3.48
2019-02-26T01:17:20.263Z,3.41
2019-02-26T01:19:52.258Z,3.39
2019-02-26T01:22:24.193Z,3.38
2019-02-26T01:24:56.747Z,3.43
2019-02-26T01:27:30.083Z,3.37
2019-02-26T01:30:03.468Z,3.27
2019-02-26T01:32:35.553Z,3.25
2019-02-26T01:35:08.885Z,3.34
2019-02-26T01:37:41.394Z,3.33
2019-02-26T01:40:15.854Z,3.33
2019-02-26T01:42:51.933Z,3.35
2019-02-26T01:45:22.366Z,3.25
2019-02-26T01:47:54.999Z,3.12
2019-02-26T01:50:28.390Z,3.05
2019-02-26T01:53:01.152Z,3.08
2019-02-26T01:55:33.249Z,3.10
2019-02-26T01:58:05.205Z,3.06
2019-02-26T02:00:38.652Z,2.99
2019-02-26T02:03:11.062Z,3.01
2019-02-26T02:05:43.944Z,3.01
2019-02-26T02:08:17.905Z,3.05
2019-02-26T02:10:53.598Z,3.09
2019-02-26T02:13:28.332Z,3.04
2019-02-26T02:15:59.731Z,3.14
2019-02-26T02:18:32.402Z,3.16
2019-02-26T02:21:04.386Z,3.22
2019-02-26T02:23:36.351Z,3.23
2019-02-26T02:26:09.394Z,3.21
2019-02-26T02:28:42.253Z,3.29
2019-02-26T02:31:14.221Z,3.24
2019-02-26T02:33:46.214Z,3.28
2019-02-26T02:36:20.523Z,3.27
2019-02-26T02:38:52.057Z,3.27
2019-02-26T02:41:24.004Z,3.20
2019-02-26T02:43:56.000Z,3.24
2019-02-26T02:46:27.972Z,3.28
2019-02-26T02:48:59.940Z,3.27
2019-02-26T02:51:34.615Z,3.33
2019-02-26T02:54:05.780Z,3.29
2019-02-26T02:56:39.867Z,3.23
2019-02-26T02:59:14.004Z,3.23
2019-02-26T03:01:48.837Z,3.12
2019-02-26T03:04:20.235Z,3.12
2019-02-26T03:06:55.482Z,3.12
2019-02-26T03:09:27.270Z,3.10
2019-02-26T03:11:59.230Z,3.09
2019-02-26T03:14:33.839Z,3.14
2019-02-26T03:17:06.390Z,3.07
2019-02-26T03:19:41.618Z,3.06
2019-02-26T03:22:15.249Z,3.07
2019-02-26T03:24:48.340Z,3.04
2019-02-26T03:27:20.666Z,3.02
2019-02-26T03:29:55.588Z,3.19
2019-02-26T03:32:26.561Z,3.13
2019-02-26T03:35:02.035Z,3.13
2019-02-26T03:37:34.624Z,3.02
2019-02-26T03:40:08.233Z,3.08
2019-02-26T03:42:43.354Z,3.03
2019-02-26T03:45:15.192Z,3.00
2019-02-26T03:47:47.152Z,2.97
2019-02-26T03:50:19.164Z,2.85
2019-02-26T03:52:51.159Z,2.73
2019-02-26T03:55:23.143Z,2.77
2019-02-26T03:57:57.135Z,2.84
2019-02-26T04:00:31.554Z,2.83
2019-02-26T04:03:03.919Z,2.81
2019-02-26T04:05:38.878Z,2.76
2019-02-26T04:08:10.825Z,2.85
2019-02-26T04:10:42.801Z,2.87
2019-02-26T04:13:14.748Z,2.89
2019-02-26T04:15:46.722Z,2.92
2019-02-26T04:18:18.675Z,2.92
2019-02-26T04:20:50.649Z,2.93
2019-02-26T04:23:22.608Z,2.93
2019-02-26T04:26:51.192Z,2.90
2019-02-26T04:29:57.337Z,2.90
2019-02-26T04:33:24.913Z,2.90
2019-02-26T04:36:20.323Z,2.81
2019-02-26T04:39:34.445Z,2.74
2019-02-26T04:42:37.730Z,2.73
2019-02-26T04:46:13.627Z,2.71
2019-02-26T04:48:45.684Z,2.63
2019-02-26T04:51:17.671Z,2.67
2019-02-26T04:53:51.940Z,2.62
2019-02-26T04:56:24.865Z,2.69
2019-02-26T04:58:56.887Z,2.59
2019-02-26T05:01:28.901Z,2.62
2019-02-26T05:04:00.887Z,2.68
2019-02-26T05:06:32.934Z,2.71
2019-02-26T05:09:05.591Z,2.70
2019-02-26T05:11:40.782Z,2.68
2019-02-26T05:14:15.386Z,2.70
2019-02-26T05:16:46.823Z,2.62
2019-02-26T05:19:21.512Z,2.54
2019-02-26T05:21:53.498Z,2.63
2019-02-26T05:24:26.710Z,2.60
2019-02-26T05:26:58.767Z,2.61
2019-02-26T05:29:30.766Z,2.58
2019-02-26T05:32:04.110Z,2.62
2019-02-26T05:34:39.681Z,2.58
2019-02-26T05:37:13.778Z,2.41
2019-02-26T05:39:46.894Z,2.40
2019-02-26T05:42:19.435Z,2.39
2019-02-26T05:44:53.804Z,2.30
2019-02-26T05:47:26.699Z,2.30
2019-02-26T05:49:59.617Z,2.31
2019-02-26T05:52:33.680Z,2.27
2019-02-26T05:55:06.514Z,2.27
2019-02-26T05:57:38.497Z,2.32
2019-02-26T06:00:13.398Z,2.39
2019-02-26T06:02:47.701Z,2.29
2019-02-26T06:05:22.545Z,2.21
2019-02-26T06:07:54.159Z,2.27
2019-02-26T06:10:27.182Z,2.15
2019-02-26T06:13:02.066Z,2.13
2019-02-26T06:15:34.238Z,2.17
2019-02-26T06:18:07.528Z,2.03
2019-02-26T06:20:39.523Z,2.07
2019-02-26T06:23:11.492Z,2.03
2019-02-26T06:25:43.499Z,2.01
2019-02-26T06:28:17.868Z,2.06
2019-02-26T06:30:50.513Z,2.00
2019-02-26T06:33:23.592Z,2.07
2019-02-26T06:35:57.149Z,2.06
2019-02-26T06:38:32.212Z,2.11
2019-02-26T06:41:03.454Z,2.14
2019-02-26T06:43:37.819Z,2.14
2019-02-26T06:46:11.731Z,2.32
2019-02-26T06:48:43.214Z,2.36
2019-02-26T06:51:15.203Z,2.46
2019-02-26T06:53:49.389Z,2.60
2019-02-26T06:56:21.130Z,2.65
2019-02-26T06:58:53.088Z,2.65
2019-02-26T07:01:25.080Z,2.72
2019-02-26T07:03:57.050Z,2.76
2019-02-26T07:06:30.174Z,2.84
2019-02-26T07:09:03.795Z,2.98
2019-02-26T07:11:37.829Z,3.02
2019-02-26T07:14:10.351Z,3.14
2019-02-26T07:16:42.580Z,3.37
2019-02-26T07:19:16.709Z,3.60
2019-02-26T07:21:51.287Z,3.95
2019-02-26T07:24:24.483Z,4.27
2019-02-26T07:26:56.763Z,4.69
2019-02-26T07:29:30.776Z,5.02
2019-02-26T07:32:02.661Z,5.17
2019-02-26T07:34:34.701Z,5.33
2019-02-26T07:37:09.326Z,5.47
2019-02-26T07:39:42.445Z,5.59
2019-02-26T07:42:16.950Z,5.79
2019-02-26T07:44:49.573Z,6.00
2019-02-26T07:47:22.137Z,6.22
2019-02-26T07:49:56.542Z,6.46
2019-02-26T07:52:28.928Z,6.55
2019-02-26T07:55:03.763Z,6.64
2019-02-26T07:57:35.963Z,6.84
2019-02-26T08:00:10.225Z,7.05
2019-02-26T08:02:42.226Z,7.08
2019-02-26T08:05:16.184Z,7.21
2019-02-26T08:07:49.232Z,7.43
2019-02-26T08:10:22.078Z,7.55
2019-02-26T08:12:56.086Z,7.52
2019-02-26T08:15:30.195Z,7.61
2019-02-26T08:18:03.442Z,7.77
2019-02-26T08:20:37.701Z,7.80
2019-02-26T08:23:10.912Z,8.14
2019-02-26T08:25:42.893Z,8.24
2019-02-26T08:28:15.442Z,8.45
2019-02-26T08:30:49.820Z,8.64
2019-02-26T08:33:22.681Z,8.75
2019-02-26T08:35:56.086Z,8.97
2019-02-26T08:38:30.053Z,9.15
2019-02-26T08:41:02.148Z,9.33
2019-02-26T08:43:34.132Z,9.54
2019-02-26T08:46:07.295Z,9.63
2019-02-26T08:48:41.290Z,9.65
2019-02-26T08:51:16.312Z,9.77
2019-02-26T08:53:49.533Z,10.03
2019-02-26T08:56:23.905Z,10.26
2019-02-26T08:58:55.647Z,10.38
2019-02-26T09:01:27.779Z,10.49
2019-02-26T09:04:00.800Z,10.80
2019-02-26T09:06:32.896Z,10.94
2019-02-26T09:09:06.849Z,11.14
2019-02-26T09:11:38.979Z,11.38
2019-02-26T09:14:12.112Z,11.48
2019-02-26T09:16:47.681Z,11.55
2019-02-26T09:19:18.715Z,11.67
2019-02-26T09:21:52.406Z,11.71
2019-02-26T09:24:24.696Z,11.84
2019-02-26T09:26:57.549Z,12.02
2019-02-26T09:29:31.462Z,12.06
2019-02-26T09:32:06.680Z,12.31
2019-02-26T09:34:39.831Z,12.26
2019-02-26T09:37:13.263Z,12.51
2019-02-26T09:39:45.232Z,12.71
2019-02-26T09:42:17.341Z,12.83
2019-02-26T09:44:50.648Z,12.85
2019-02-26T09:47:32.836Z,12.98
2019-02-26T09:50:44.304Z,13.22
2019-02-26T09:53:16.159Z,13.40
2019-02-26T09:55:48.140Z,13.65
2019-02-26T09:58:21.217Z,13.75
2019-02-26T10:00:54.238Z,13.97
2019-02-26T10:03:27.370Z,14.05
2019-02-26T10:06:00.117Z,14.32
2019-02-26T10:08:32.173Z,14.51
2019-02-26T10:11:04.875Z,14.52
2019-02-26T10:13:39.624Z,14.63
2019-02-26T10:16:11.959Z,14.73
2019-02-26T10:18:45.018Z,14.86
2019-02-26T10:21:20.338Z,15.03
2019-02-26T10:23:53.961Z,15.19
2019-02-26T10:26:26.315Z,15.27
2019-02-26T10:29:04.429Z,15.30
2019-02-26T10:31:33.512Z,15.41
2019-02-26T10:34:07.861Z,15.44
2019-02-26T10:36:43.429Z,15.39
2019-02-26T10:39:15.087Z,15.50
2019-02-26T10:41:47.291Z,15.61
2019-02-26T10:44:19.291Z,15.70
2019-02-26T10:46:52.376Z,15.77
2019-02-26T10:49:24.354Z,15.90
2019-02-26T10:51:57.749Z,16.09
2019-02-26T10:54:32.150Z,16.20
2019-02-26T10:57:07.599Z,16.33
2019-02-26T10:59:38.200Z,16.38
2019-02-26T11:02:10.269Z,16.43
2019-02-26T11:04:43.924Z,16.48
2019-02-26T11:07:16.181Z,16.59
2019-02-26T11:09:52.634Z,16.59
2019-02-26T11:12:27.380Z,16.59
2019-02-26T11:14:58.640Z,16.62
2019-02-26T11:17:31.685Z,16.80
2019-02-26T11:20:05.267Z,17.00
2019-02-26T11:22:41.624Z,17.13
2019-02-26T11:25:16.359Z,17.06
2019-02-26T11:27:49.086Z,17.07
2019-02-26T11:30:23.834Z,16.97
2019-02-26T11:32:59.373Z,16.99
2019-02-26T11:35:30.162Z,17.11
2019-02-26T11:38:02.182Z,17.14
2019-02-26T11:40:34.249Z,17.43
2019-02-26T11:43:11.505Z,17.30
2019-02-26T11:45:44.407Z,17.27
2019-02-26T11:48:17.549Z,17.45
2019-02-26T11:50:49.755Z,17.38
2019-02-26T11:53:21.719Z,17.36
2019-02-26T11:55:54.991Z,17.47
2019-02-26T11:58:27.621Z,17.54
2019-02-26T12:01:01.382Z,17.56
2019-02-26T12:03:36.375Z,17.61
2019-02-26T12:06:07.311Z,17.64
2019-02-26T12:08:40.593Z,17.68
2019-02-26T12:11:17.596Z,17.72
2019-02-26T12:13:47.909Z,17.83
2019-02-26T12:16:22.208Z,17.73
2019-02-26T12:18:54.225Z,17.93
2019-02-26T12:21:28.058Z,17.79
2019-02-26T12:24:03.198Z,17.80
2019-02-26T12:26:35.056Z,17.84
2019-02-26T12:29:07.025Z,17.90
2019-02-26T12:31:39.248Z,18.05
2019-02-26T12:34:12.378Z,18.39
2019-02-26T12:36:48.088Z,18.27
2019-02-26T12:39:21.422Z,18.27
2019-02-26T12:41:53.136Z,18.40
2019-02-26T12:44:25.155Z,18.56
2019-02-26T12:47:00.173Z,18.40
2019-02-26T12:49:35.626Z,18.53
2019-02-26T12:52:06.740Z,18.41
2019-02-26T12:54:42.236Z,18.39
2019-02-26T12:57:18.845Z,18.35
2019-02-26T12:59:49.813Z,18.59
2019-02-26T13:02:25.664Z,18.62
2019-02-26T13:04:55.787Z,18.45
2019-02-26T13:07:27.875Z,18.52
2019-02-26T13:10:03.375Z,18.55
2019-02-26T13:12:33.910Z,18.48
2019-02-26T13:15:09.742Z,18.43
2019-02-26T13:17:44.319Z,18.43
2019-02-26T13:20:19.134Z,18.42
2019-02-26T13:22:56.185Z,18.36
2019-02-26T13:25:26.752Z,18.55
2019-02-26T13:27:59.202Z,18.50
2019-02-26T13:30:32.913Z,18.72
2019-02-26T13:35:41.886Z,18.86
2019-02-26T13:38:13.042Z,18.94
2019-02-26T13:40:45.225Z,18.78
2019-02-26T13:43:17.267Z,18.80
2019-02-26T13:45:49.254Z,18.86
2019-02-26T13:48:21.282Z,18.81
2019-02-26T13:50:53.467Z,18.86
2019-02-26T13:53:25.959Z,18.87
2019-02-26T13:55:58.006Z,19.03
2019-02-26T13:58:31.115Z,18.83
2019-02-26T14:01:04.841Z,18.77
2019-02-26T14:03:37.070Z,18.76
2019-02-26T14:06:09.072Z,18.75
2019-02-26T14:08:41.104Z,18.88
2019-02-26T14:11:13.284Z,18.84
2019-02-26T14:13:46.451Z,18.87
2019-02-26T14:16:18.439Z,19.00
2019-02-26T14:18:50.458Z,19.04
2019-02-26T14:21:22.469Z,18.93
2019-02-26T14:23:54.524Z,18.78
2019-02-26T14:26:26.625Z,18.70
2019-02-26T14:28:58.725Z,18.64
2019-02-26T14:31:30.691Z,18.59
2019-02-26T14:34:02.740Z,18.62
2019-02-26T14:36:34.740Z,18.66
2019-02-26T14:39:07.271Z,18.66
2019-02-26T14:41:39.388Z,18.66
2019-02-26T14:44:11.413Z,18.84
2019-02-26T14:46:44.548Z,19.01
2019-02-26T14:49:16.563Z,18.85
2019-02-26T14:51:48.779Z,18.81
2019-02-26T14:54:20.819Z,18.72
2019-02-26T14:56:52.975Z,18.70
2019-02-26T14:59:25.000Z,18.63
2019-02-26T15:01:57.001Z,18.61
2019-02-26T15:04:30.322Z,18.61
2019-02-26T15:07:02.332Z,18.46
2019-02-26T15:09:34.739Z,18.41
2019-02-26T15:12:06.748Z,18.40
2019-02-26T15:14:38.834Z,18.37
2019-02-26T15:17:10.854Z,18.33
2019-02-26T15:19:49.676Z,18.31
2019-02-26T15:22:17.076Z,18.32
2019-02-26T15:24:49.156Z,18.30
2019-02-26T15:27:21.178Z,18.29
2019-02-26T15:29:53.394Z,18.30
2019-02-26T15:32:25.530Z,18.23
2019-02-26T15:34:57.572Z,18.15
2019-02-26T15:37:29.611Z,18.08
2019-02-26T15:40:01.815Z,18.07
2019-02-26T15:42:33.845Z,18.09
2019-02-26T15:45:09.248Z,18.03
2019-02-26T15:47:41.221Z,17.95
2019-02-26T15:50:13.168Z,17.85
2019-02-26T15:52:45.222Z,17.80
2019-02-26T15:55:18.219Z,17.78
2019-02-26T15:57:50.257Z,17.67
2019-02-26T16:00:22.893Z,17.64
2019-02-26T16:02:58.994Z,17.55
2019-02-26T16:05:29.115Z,17.46
2019-02-26T16:08:01.173Z,17.38
2019-02-26T16:10:33.583Z,17.30
2019-02-26T16:13:05.643Z,17.19
2019-02-26T16:15:37.644Z,17.08
2019-02-26T16:18:09.668Z,16.98
2019-02-26T16:20:41.663Z,16.88
2019-02-26T16:23:13.715Z,16.78
2019-02-26T16:25:45.730Z,16.67
2019-02-26T16:28:17.742Z,16.58
2019-02-26T16:30:49.832Z,16.44
2019-02-26T16:33:21.910Z,16.34
2019-02-26T16:35:57.434Z,16.24
2019-02-26T16:38:27.978Z,16.13
2019-02-26T16:41:00.027Z,15.95
2019-02-26T16:43:32.025Z,15.82
2019-02-26T16:46:08.375Z,15.66
2019-02-26T16:48:38.406Z,15.55
2019-02-26T16:51:10.624Z,15.41
2019-02-26T16:53:42.676Z,15.24
2019-02-26T16:56:14.928Z,15.09
2019-02-26T16:58:46.976Z,14.94
2019-02-26T17:01:19.710Z,14.78
2019-02-26T17:03:52.965Z,14.65
2019-02-26T17:06:25.008Z,14.54
2019-02-26T17:08:57.039Z,14.37
2019-02-26T17:11:29.089Z,14.24
2019-02-26T17:14:01.079Z,14.14
2019-02-26T17:16:33.236Z,14.01
2019-02-26T17:19:05.222Z,13.90
2019-02-26T17:21:37.358Z,13.74
2019-02-26T17:24:09.378Z,13.60
2019-02-26T17:26:41.394Z,13.42
2019-02-26T17:29:14.870Z,13.31
2019-02-26T17:31:47.565Z,13.19
2019-02-26T17:34:20.340Z,13.04
2019-02-26T17:36:53.622Z,12.90
2019-02-26T17:39:27.871Z,12.82
2019-02-26T17:41:59.565Z,12.77
2019-02-26T17:44:31.611Z,12.66
2019-02-26T17:47:03.702Z,12.56
2019-02-26T17:49:36.315Z,12.47
2019-02-26T17:52:08.975Z,12.34
2019-02-26T17:54:40.962Z,12.28
2019-02-26T17:57:13.018Z,12.16
2019-02-26T17:59:45.037Z,12.06
2019-02-26T18:02:17.066Z,11.95
2019-02-26T18:04:49.089Z,11.82
2019-02-26T18:07:21.136Z,11.69
2019-02-26T18:09:53.208Z,11.57
2019-02-26T18:12:25.239Z,11.48
2019-02-26T18:14:57.291Z,11.41
2019-02-26T18:17:29.287Z,11.34
2019-02-26T18:20:01.419Z,11.21
2019-02-26T18:22:33.435Z,11.09
2019-02-26T18:25:06.080Z,10.94
2019-02-26T18:27:38.144Z,10.86
2019-02-26T18:30:18.151Z,10.82
2019-02-26T18:32:53.182Z,10.74
2019-02-26T18:35:24.374Z,10.57
2019-02-26T18:37:56.399Z,10.50
2019-02-26T18:40:29.053Z,10.43
2019-02-26T18:43:01.233Z,10.30
2019-02-26T18:45:33.327Z,10.21
2019-02-26T18:48:05.354Z,10.17
2019-02-26T18:50:39.092Z,10.10
2019-02-26T18:53:11.760Z,10.03
2019-02-26T18:55:45.336Z,10.00
2019-02-26T18:58:17.330Z,9.80
2019-02-26T19:00:49.395Z,9.78
2019-02-26T19:03:21.479Z,9.70
2019-02-26T19:05:54.661Z,9.65
2019-02-26T19:08:26.919Z,9.60
2019-02-26T19:10:59.035Z,9.54
2019-02-26T19:13:33.263Z,9.45
2019-02-26T19:16:05.053Z,9.41
2019-02-26T19:18:38.498Z,9.37
2019-02-26T19:21:10.659Z,9.27
2019-02-26T19:23:42.657Z,9.18
2019-02-26T19:26:14.734Z,9.11
2019-02-26T19:28:46.874Z,8.94
2019-02-26T19:31:18.973Z,8.84
2019-02-26T19:33:54.467Z,8.78
2019-02-26T19:36:24.992Z,8.72
2019-02-26T19:39:00.713Z,8.63
2019-02-26T19:41:30.975Z,8.60
2019-02-26T19:44:03.049Z,8.52
2019-02-26T19:46:35.111Z,8.45
2019-02-26T19:49:07.150Z,8.43
2019-02-26T19:51:39.266Z,8.39
2019-02-26T19:54:11.288Z,8.39
2019-02-26T19:56:43.401Z,8.38
2019-02-26T19:59:15.451Z,8.32
2019-02-26T20:01:47.527Z,8.28
2019-02-26T20:04:19.582Z,8.23
2019-02-26T20:06:51.670Z,8.10
2019-02-26T20:09:23.712Z,8.01
2019-02-26T20:11:56.208Z,7.88
2019-02-26T20:14:29.026Z,7.79
2019-02-26T20:17:11.594Z,7.77
2019-02-26T20:19:35.048Z,7.66
2019-02-26T20:22:09.832Z,7.54
2019-02-26T20:24:41.875Z,7.52
2019-02-26T20:27:14.002Z,7.44
2019-02-26T20:29:46.048Z,7.39
2019-02-26T20:32:18.212Z,7.36
2019-02-26T20:34:50.351Z,7.26
2019-02-26T20:37:24.422Z,7.15
2019-02-26T20:39:56.488Z,7.08
2019-02-26T20:42:28.918Z,7.07
2019-02-26T20:45:01.579Z,7.06
2019-02-26T20:47:33.635Z,7.02
2019-02-26T20:50:05.801Z,6.98
2019-02-26T20:52:37.865Z,6.85
2019-02-26T20:55:11.593Z,6.82
2019-02-26T20:57:43.632Z,6.65
2019-02-26T21:00:16.683Z,6.67
2019-02-26T21:02:48.729Z,6.63
2019-02-26T21:05:25.043Z,6.58
2019-02-26T21:07:58.822Z,6.54
2019-02-26T21:10:31.123Z,6.49
2019-02-26T21:13:03.151Z,6.49
2019-02-26T21:15:35.213Z,6.41
2019-02-26T21:18:07.223Z,6.41
2019-02-26T21:20:41.142Z,6.42
2019-02-26T21:23:13.422Z,6.40
2019-02-26T21:25:47.464Z,6.37
2019-02-26T21:28:19.402Z,6.32
2019-02-26T21:30:51.490Z,6.26
2019-02-26T21:33:24.693Z,6.15
2019-02-26T21:35:56.804Z,6.06
2019-02-26T21:38:28.800Z,5.93
2019-02-26T21:41:00.969Z,5.96
2019-02-26T21:43:35.491Z,5.92
2019-02-26T21:46:08.864Z,5.93
2019-02-26T21:48:42.064Z,6.04
2019-02-26T21:51:14.166Z,5.93
2019-02-26T21:53:46.678Z,6.13
2019-02-26T21:56:20.135Z,6.07
2019-02-26T21:58:52.183Z,6.06
2019-02-26T22:01:25.777Z,6.06
2019-02-26T22:03:58.600Z,6.01
2019-02-26T22:06:31.423Z,6.01
2019-02-26T22:09:04.684Z,5.86
2019-02-26T22:11:36.688Z,5.71
2019-02-26T22:14:08.700Z,5.71
2019-02-26T22:16:40.752Z,5.71
2019-02-26T22:19:12.764Z,5.64
2019-02-26T22:22:04.287Z,5.57
2019-02-26T22:24:37.807Z,5.56
2019-02-26T22:27:10.235Z,5.47
2019-02-26T22:29:42.238Z,5.36
2019-02-26T22:32:14.303Z,5.31
2019-02-26T22:34:46.303Z,5.23
2019-02-26T22:37:18.349Z,5.19
2019-02-26T22:39:50.377Z,5.13
2019-02-26T22:42:22.412Z,5.13
2019-02-26T22:44:55.244Z,5.13
2019-02-26T22:47:28.338Z,5.10
2019-02-26T22:50:00.373Z,5.07
2019-02-26T22:52:32.380Z,5.05
2019-02-26T22:55:04.835Z,5.08
2019-02-26T22:57:36.889Z,5.10
2019-02-26T23:00:54.334Z,5.09
2019-02-26T23:03:26.492Z,5.00
2019-02-26T23:05:59.060Z,4.86
2019-02-26T23:08:32.414Z,4.81
2019-02-26T23:11:04.509Z,4.81
2019-02-26T23:13:36.605Z,4.84
2019-02-26T23:16:08.646Z,4.64
2019-02-26T23:18:40.843Z,4.72
2019-02-26T23:21:15.734Z,4.79
2019-02-26T23:23:47.734Z,4.82
2019-02-26T23:26:19.699Z,4.82
2019-02-26T23:28:54.432Z,4.94
2019-02-26T23:31:25.826Z,4.95
2019-02-26T23:33:57.817Z,4.85
2019-02-26T23:36:29.813Z,4.80
2019-02-26T23:39:01.855Z,4.77
2019-02-26T23:41:34.023Z,4.75
2019-02-26T23:44:06.052Z,4.73
2019-02-26T23:46:38.140Z,4.82
2019-02-26T23:49:11.778Z,4.85
2019-02-26T23:51:44.000Z,4.83
2019-02-26T23:54:15.981Z,4.81
2019-02-26T23:56:49.854Z,4.74
2019-02-26T23:59:21.885Z,4.75
